Crystal, Minnesota
Current Conditions -  °F | °C
As of 11:53 AM on Friday 21 Nov 2014 (Local Time) from KMIC Reporting Station
Scattered Clouds Scattered Clouds  
Wind Chill: 14°   Ceiling: Unl
Heat Index: 26°   Visibility: 10mi
Dew Point: 14°   Wind: 14mph
Humidity: 60%   Direction: 170°S
Pressure: 30.09"   Gusts: NA
Location:  45.03°N, 93.36°W
Report Text: KMIC 211753Z 17012KT 10SM SCT120 M03/M10 A3009 RMK AO2 SLP206 T10331100 11033 21139 58026
Loading
Personal Weather Stations






























Interactive Weather Map New forecast layout! Learn more

10-Day Weather Forecast

Advertisements
Track Severe Weather on mobile